Aviation Digital Data Service (ADDS)

Output produced by METARs form (1907 UTC 25 June 2017)
found at http://www.aviationweather.gov/adds/metars/
 
MGGT 251900Z 36010KT 9999 SCT020TCU SCT080 25/17 Q1026 A3030 FEW090 TCU NE/SE/SSE/SW/NW/NNW
TAF MGGT 2512/2612 00000KT 9999 SCT012 TX25/2520Z TN18/2512Z 
     PROB30 2512/2514 5000 BR BKN008 
     BECMG 2514/2516 VRB03KT SCT018 
     TEMPO 2520/2602 8000 VCTSRA SCT018TCU FEW025CB 
     BECMG 2601/2603 00000KT BKN016 
     BECMG 2605/2607 BKN012 
     PROB30 2607/2610 8000 DZ BKN010
       
MGPB 251900Z 09008KT 9999 SCT020 BKN200 31/25 Q1014 A2994
TAF MGPB 2512/2612 00000KT 9999 SCT016 SCT080 TX30/2520Z TN23/2512Z 
     PROB40 
     TEMPO 2512/2514 8000 TSRA FEW025CB 
     BECMG 2515/2517 06008KT SCT018 
     PROB40 
     TEMPO 2520/2602 8000 VCTSRA FEW025CB 
     BECMG 2602/2604 00000KT SCT016
       
MGRT 251900Z 22004KT 9999 TS SCT018 FEW025CB SCT090 31/23 Q1015 A2997 CB/TS /PCPN N/NNE/NNW CB NE/E
MGSJ 251900Z 18004KT 8000 SCT018 SCT200 33/26 Q1012 A2988 HZ
TAF MGSJ 2512/2612 00000KT CAVOK TX31/2520Z TN22/2512Z 
     BECMG 2515/2517 21010KT 
     TEMPO 2520/2524 FEW018 
     BECMG 00000KT FEW016 
     PROB30 2609/2612 8000 TSRA FEW025CB